createdAt,value
2023-03-11T00:01:14.537Z,1.70
2023-03-11T00:06:11.047Z,1.83
2023-03-11T00:11:07.646Z,1.84
2023-03-11T00:16:04.419Z,1.86
2023-03-11T00:21:01.193Z,1.93
2023-03-11T00:25:59.605Z,1.95
2023-03-11T00:30:56.125Z,1.98
2023-03-11T00:35:52.653Z,2.01
2023-03-11T00:40:49.748Z,2.01
2023-03-11T00:45:46.108Z,1.97
2023-03-11T00:50:42.980Z,1.95
2023-03-11T00:55:39.481Z,1.97
2023-03-11T01:00:36.021Z,2.01
2023-03-11T01:05:33.596Z,2.04
2023-03-11T01:10:35.360Z,2.06
2023-03-11T01:15:37.068Z,2.09
2023-03-11T01:20:34.448Z,2.11
2023-03-11T01:25:31.115Z,2.15
2023-03-11T01:30:28.691Z,2.13
2023-03-11T01:35:26.852Z,2.07
2023-03-11T01:40:30.370Z,2.08
2023-03-11T01:45:47.870Z,2.13
2023-03-11T01:50:49.779Z,2.09
2023-03-11T01:55:46.650Z,2.07
2023-03-11T02:00:43.713Z,2.05
2023-03-11T02:05:40.598Z,2.03
2023-03-11T02:10:39.170Z,2.00
2023-03-11T02:15:35.642Z,2.01
2023-03-11T02:20:49.363Z,2.03
2023-03-11T02:26:02.479Z,1.99
2023-03-11T02:30:59.154Z,2.04
2023-03-11T02:35:57.469Z,2.01
2023-03-11T02:40:59.439Z,1.98
2023-03-11T02:45:56.652Z,1.96
2023-03-11T02:50:53.410Z,1.89
2023-03-11T02:55:51.086Z,1.89
2023-03-11T03:00:47.883Z,1.83
2023-03-11T03:05:44.549Z,1.67
2023-03-11T03:10:41.274Z,1.59
2023-03-11T03:15:40.263Z,1.65
2023-03-11T03:20:36.900Z,1.78
2023-03-11T03:25:33.532Z,1.56
2023-03-11T03:30:34.976Z,1.52
2023-03-11T03:35:38.053Z,1.68
2023-03-11T03:40:54.141Z,1.49
2023-03-11T03:46:07.905Z,1.58
2023-03-11T03:51:16.503Z,1.61
2023-03-11T03:56:21.925Z,1.61
2023-03-11T04:07:03.240Z,1.56
2023-03-11T04:12:11.009Z,1.53
2023-03-11T04:17:07.385Z,1.79
2023-03-11T04:22:19.790Z,1.57
2023-03-11T04:27:36.760Z,1.63
2023-03-11T04:32:48.677Z,1.60
2023-03-11T04:43:26.685Z,1.81
2023-03-11T04:48:57.364Z,1.74
2023-03-11T04:54:13.225Z,1.48
2023-03-11T05:05:05.766Z,1.32
2023-03-11T05:10:19.020Z,1.33
2023-03-11T05:15:32.904Z,1.33
2023-03-11T05:32:10.907Z,1.07
2023-03-11T05:43:28.661Z,0.93
2023-03-11T05:54:37.758Z,0.97
2023-03-11T05:59:40.742Z,0.85
2023-03-11T06:28:31.879Z,0.71
2023-03-11T06:33:31.537Z,0.84
2023-03-11T06:38:29.104Z,0.80
2023-03-11T06:54:06.810Z,0.77
2023-03-11T06:59:03.297Z,0.79
2023-03-11T07:03:59.906Z,0.78
2023-03-11T07:08:59.455Z,0.81
2023-03-11T07:13:56.191Z,0.97
2023-03-11T07:18:54.822Z,0.90
2023-03-11T07:23:55.669Z,0.90
2023-03-11T07:28:54.122Z,1.08
2023-03-11T07:33:50.721Z,1.16
2023-03-11T07:38:47.328Z,1.18
2023-03-11T07:43:44.096Z,1.26
2023-03-11T07:48:42.709Z,1.33
2023-03-11T07:53:42.481Z,1.42
2023-03-11T07:58:39.204Z,1.47
2023-03-11T08:03:35.723Z,1.49
2023-03-11T08:08:32.242Z,1.54
2023-03-11T08:13:28.650Z,1.57
2023-03-11T08:18:25.136Z,1.68
2023-03-11T08:23:21.605Z,1.64
2023-03-11T08:28:18.125Z,1.77
2023-03-11T08:33:14.576Z,1.80
2023-03-11T08:38:10.941Z,1.79
2023-03-11T08:43:07.847Z,1.89
2023-03-11T08:48:04.413Z,1.91
2023-03-11T08:53:03.107Z,1.95
2023-03-11T08:57:59.539Z,1.97
2023-03-11T09:02:56.184Z,1.98
2023-03-11T09:07:52.690Z,2.07
2023-03-11T09:12:49.162Z,2.14
2023-03-11T09:17:45.714Z,2.22
2023-03-11T09:22:42.148Z,2.17
2023-03-11T09:27:38.837Z,2.22
2023-03-11T09:32:35.336Z,2.31
2023-03-11T09:37:32.065Z,2.31
2023-03-11T09:42:36.909Z,2.38
2023-03-11T09:47:51.386Z,2.43
2023-03-11T09:53:04.335Z,2.44
2023-03-11T09:58:04.752Z,2.44
2023-03-11T10:03:02.266Z,2.49
2023-03-11T10:08:34.498Z,2.59
2023-03-11T10:13:37.616Z,2.63
2023-03-11T10:19:16.670Z,2.64
2023-03-11T10:24:24.526Z,2.78
2023-03-11T10:29:26.145Z,2.88
2023-03-11T10:34:32.629Z,2.91
2023-03-11T10:39:30.182Z,3.00
2023-03-11T10:44:33.930Z,3.04
2023-03-11T10:49:30.643Z,3.11
2023-03-11T10:54:31.002Z,3.15
2023-03-11T10:59:47.786Z,3.23
2023-03-11T11:04:44.342Z,3.26
2023-03-11T11:09:40.927Z,3.34
2023-03-11T11:14:51.743Z,3.48
2023-03-11T11:19:48.923Z,3.54
2023-03-11T11:24:46.703Z,3.69
2023-03-11T11:29:43.490Z,3.78
2023-03-11T11:34:39.924Z,3.87
2023-03-11T11:39:44.147Z,3.96
2023-03-11T11:44:43.028Z,4.02
2023-03-11T11:49:48.702Z,4.13
2023-03-11T11:55:09.778Z,4.22
2023-03-11T12:00:18.855Z,4.31
2023-03-11T12:05:26.211Z,4.39
2023-03-11T12:10:37.387Z,4.47
2023-03-11T12:15:42.723Z,4.55
2023-03-11T12:20:45.797Z,4.60
2023-03-11T12:26:06.837Z,4.69
2023-03-11T12:31:06.699Z,4.90
2023-03-11T12:36:04.585Z,5.21
2023-03-11T12:41:07.123Z,5.41
2023-03-11T12:46:11.180Z,5.54
2023-03-11T12:51:27.658Z,5.60
2023-03-11T12:56:30.613Z,5.68
2023-03-11T13:01:31.240Z,5.75
2023-03-11T13:07:01.491Z,5.82
2023-03-11T13:11:57.952Z,5.84
2023-03-11T13:16:54.618Z,5.86
2023-03-11T13:21:51.089Z,5.86
2023-03-11T13:26:59.516Z,5.86
2023-03-11T13:32:14.636Z,5.82
2023-03-11T13:37:50.587Z,5.83
2023-03-11T13:42:51.926Z,5.92
2023-03-11T13:47:49.591Z,6.00
2023-03-11T13:52:53.571Z,6.00
2023-03-11T13:57:55.118Z,6.09
2023-03-11T14:02:55.057Z,6.16
2023-03-11T14:07:54.316Z,6.23
2023-03-11T14:23:57.003Z,6.24
2023-03-11T14:29:21.100Z,6.26
2023-03-11T14:34:27.808Z,6.28
2023-03-11T14:39:29.243Z,6.42
2023-03-11T14:44:30.871Z,6.49
2023-03-11T14:54:29.816Z,6.34
2023-03-11T14:59:46.724Z,6.26
2023-03-11T15:10:29.363Z,6.20
2023-03-11T15:15:33.631Z,6.11
2023-03-11T15:20:44.150Z,6.13
2023-03-11T15:25:51.558Z,6.11
2023-03-11T15:31:00.146Z,6.22
2023-03-11T15:36:23.006Z,6.02
2023-03-11T15:41:25.961Z,6.08
2023-03-11T15:46:22.555Z,6.08
2023-03-11T15:51:19.956Z,6.26
2023-03-11T15:56:23.738Z,6.09
2023-03-11T16:01:31.675Z,6.07
2023-03-11T16:06:34.250Z,5.87
2023-03-11T16:11:32.720Z,5.58
2023-03-11T16:16:29.831Z,5.37
2023-03-11T16:21:33.407Z,5.10
2023-03-11T16:26:30.250Z,5.04
2023-03-11T16:31:28.071Z,4.88
2023-03-11T16:36:25.549Z,4.94
2023-03-11T16:41:22.146Z,4.86
2023-03-11T16:46:18.638Z,4.78
2023-03-11T16:51:15.140Z,4.68
2023-03-11T16:56:11.640Z,4.61
2023-03-11T17:01:08.132Z,4.53
2023-03-11T17:06:04.982Z,4.46
2023-03-11T17:11:01.660Z,4.42
2023-03-11T17:16:02.052Z,4.33
2023-03-11T17:20:58.607Z,4.32
2023-03-11T17:25:55.091Z,4.28
2023-03-11T17:30:51.584Z,4.23
2023-03-11T17:35:48.088Z,4.13
2023-03-11T17:40:44.563Z,4.06
2023-03-11T17:45:41.059Z,3.98
2023-03-11T17:50:38.721Z,3.91
2023-03-11T17:55:39.378Z,3.84
2023-03-11T18:00:36.007Z,3.73
2023-03-11T18:05:32.443Z,3.73
2023-03-11T18:10:28.880Z,3.71
2023-03-11T18:15:25.435Z,3.63
2023-03-11T18:20:21.902Z,3.57
2023-03-11T18:25:18.466Z,3.57
2023-03-11T18:30:14.942Z,3.53
2023-03-11T18:35:11.469Z,3.49
2023-03-11T18:40:08.608Z,3.47
2023-03-11T18:45:05.868Z,3.41
2023-03-11T18:50:02.421Z,3.42
2023-03-11T18:54:59.104Z,3.38
2023-03-11T18:59:55.587Z,3.36
2023-03-11T19:04:52.194Z,3.27
2023-03-11T19:09:49.318Z,3.28
2023-03-11T19:14:45.702Z,3.23
2023-03-11T19:19:42.272Z,3.22
2023-03-11T19:24:38.891Z,3.20
2023-03-11T19:29:35.482Z,3.22
2023-03-11T19:34:32.183Z,3.22
2023-03-11T19:39:28.934Z,3.15
2023-03-11T19:44:32.737Z,3.15
2023-03-11T19:49:36.776Z,3.12
2023-03-11T19:54:33.562Z,3.08
2023-03-11T19:59:38.329Z,3.05
2023-03-11T20:04:37.753Z,3.13
2023-03-11T20:09:40.556Z,3.21
2023-03-11T20:14:42.427Z,3.22
2023-03-11T20:19:45.212Z,3.47
2023-03-11T20:24:44.821Z,3.58
2023-03-11T20:29:41.499Z,3.56
2023-03-11T20:34:38.293Z,3.69
2023-03-11T20:39:35.153Z,3.72
2023-03-11T20:44:32.295Z,3.72
2023-03-11T20:49:29.358Z,3.72
2023-03-11T20:54:26.199Z,3.71
2023-03-11T20:59:23.038Z,3.72
2023-03-11T21:04:24.693Z,3.68
2023-03-11T21:09:24.220Z,3.70
2023-03-11T21:14:20.906Z,3.71
2023-03-11T21:19:17.792Z,3.71
2023-03-11T21:24:17.921Z,3.74
2023-03-11T21:29:14.539Z,3.80
2023-03-11T21:34:11.898Z,3.82
2023-03-11T21:39:08.661Z,3.77
2023-03-11T21:44:06.096Z,3.74
2023-03-11T21:49:02.678Z,3.67
2023-03-11T21:53:59.381Z,3.71
2023-03-11T21:58:56.166Z,3.77
2023-03-11T22:03:53.001Z,3.77
2023-03-11T22:08:50.029Z,3.83
2023-03-11T22:13:47.810Z,3.79
2023-03-11T22:18:45.215Z,3.85
2023-03-11T22:23:42.437Z,3.83
2023-03-11T22:28:38.887Z,3.74
2023-03-11T22:33:35.363Z,3.72
2023-03-11T22:38:32.497Z,3.64
2023-03-11T22:43:28.976Z,3.55
2023-03-11T22:48:25.491Z,3.45
2023-03-11T22:53:23.189Z,3.38
2023-03-11T22:58:19.854Z,3.34
2023-03-11T23:03:16.410Z,3.26
2023-03-11T23:08:14.880Z,3.20
2023-03-11T23:13:11.866Z,3.13
2023-03-11T23:18:08.375Z,3.11
2023-03-11T23:23:05.216Z,3.10
2023-03-11T23:28:03.380Z,3.07
2023-03-11T23:33:02.628Z,3.02
2023-03-11T23:37:59.163Z,2.98
2023-03-11T23:42:57.680Z,2.94
2023-03-11T23:47:54.171Z,2.92
2023-03-11T23:52:50.641Z,2.79
2023-03-11T23:57:47.182Z,2.79
